sensor_id;sensor_type;location;lat;lon;timestamp;pressure;altitude;pressure_sealevel;temperature;humidity
13954;BME280;7049;49.444;8.522;2022-09-01T00:04:23;77213.41;;;-3.47;66.98
13954;BME280;7049;49.444;8.522;2022-09-01T00:09:25;77211.31;;;-3.47;67.42
13954;BME280;7049;49.444;8.522;2022-09-01T00:14:29;77213.41;;;-3.47;67.51
13954;BME280;7049;49.444;8.522;2022-09-01T00:19:33;77221.78;;;-3.47;67.07
13954;BME280;7049;49.444;8.522;2022-09-01T00:24:35;77219.69;;;-3.47;67.68
13954;BME280;7049;49.444;8.522;2022-09-01T00:29:37;77221.78;;;-3.47;67.80
13954;BME280;7049;49.444;8.522;2022-09-01T00:34:39;77232.22;;;-3.47;68.00
13954;BME280;7049;49.444;8.522;2022-09-01T00:39:41;77238.50;;;-3.47;67.71
13954;BME280;7049;49.444;8.522;2022-09-01T00:44:42;77248.97;;;-3.47;68.07
13954;BME280;7049;49.444;8.522;2022-09-01T00:49:47;77255.25;;;-3.47;68.39
13954;BME280;7049;49.444;8.522;2022-09-01T00:54:52;77257.34;;;-3.47;68.62
13954;BME280;7049;49.444;8.522;2022-09-01T00:59:57;77265.69;;;-3.47;69.02
13954;BME280;7049;49.444;8.522;2022-09-01T01:05:00;77274.06;;;-3.47;69.18
13954;BME280;7049;49.444;8.522;2022-09-01T01:10:03;77274.06;;;-3.47;69.50
13954;BME280;7049;49.444;8.522;2022-09-01T01:15:06;77282.44;;;-3.47;69.83
13954;BME280;7049;49.444;8.522;2022-09-01T01:20:10;77290.81;;;-3.47;69.76
13954;BME280;7049;49.444;8.522;2022-09-01T01:25:36;77299.19;;;-3.47;69.52
13954;BME280;7049;49.444;8.522;2022-09-01T01:30:40;77297.09;;;-3.47;70.34
13954;BME280;7049;49.444;8.522;2022-09-01T01:35:42;77303.38;;;-3.47;70.70
13954;BME280;7049;49.444;8.522;2022-09-01T01:40:45;77307.53;;;-3.47;71.02
13954;BME280;7049;49.444;8.522;2022-09-01T01:45:48;77313.81;;;-3.47;70.71
13954;BME280;7049;49.444;8.522;2022-09-01T01:50:51;77315.91;;;-3.47;71.02
13954;BME280;7049;49.444;8.522;2022-09-01T01:55:55;77315.91;;;-3.47;71.46
13954;BME280;7049;49.444;8.522;2022-09-01T02:00:57;77322.19;;;-3.47;71.86
13954;BME280;7049;49.444;8.522;2022-09-01T02:05:59;77322.19;;;-3.47;71.87
13954;BME280;7049;49.444;8.522;2022-09-01T02:11:08;77332.66;;;-3.47;72.03
13954;BME280;7049;49.444;8.522;2022-09-01T02:16:12;77330.56;;;-3.47;72.31
13954;BME280;7049;49.444;8.522;2022-09-01T02:21:16;77338.94;;;-3.47;72.85
13954;BME280;7049;49.444;8.522;2022-09-01T02:26:20;77345.22;;;-3.47;73.12
13954;BME280;7049;49.444;8.522;2022-09-01T02:31:27;77353.56;;;-3.47;73.51
13954;BME280;7049;49.444;8.522;2022-09-01T02:36:29;77357.75;;;-3.47;73.65
13954;BME280;7049;49.444;8.522;2022-09-01T02:41:33;77366.13;;;-3.47;73.68
13954;BME280;7049;49.444;8.522;2022-09-01T02:46:34;77370.31;;;-3.47;73.64
13954;BME280;7049;49.444;8.522;2022-09-01T02:51:37;77370.31;;;-3.47;73.87
13954;BME280;7049;49.444;8.522;2022-09-01T02:56:40;77378.69;;;-3.47;74.10
13954;BME280;7049;49.444;8.522;2022-09-01T03:01:42;77387.06;;;-3.47;74.52
13954;BME280;7049;49.444;8.522;2022-09-01T03:06:47;77387.06;;;-3.47;74.79
13954;BME280;7049;49.444;8.522;2022-09-01T03:11:51;77389.13;;;-3.47;74.93
13954;BME280;7049;49.444;8.522;2022-09-01T03:16:53;77395.41;;;-3.47;74.97
13954;BME280;7049;49.444;8.522;2022-09-01T03:21:56;77399.59;;;-3.47;74.73
13954;BME280;7049;49.444;8.522;2022-09-01T03:27:01;77410.06;;;-3.47;75.23
13954;BME280;7049;49.444;8.522;2022-09-01T03:37:51;77416.34;;;-3.47;75.35
13954;BME280;7049;49.444;8.522;2022-09-01T03:42:55;77428.91;;;-3.47;75.83
13954;BME280;7049;49.444;8.522;2022-09-01T03:47:57;77433.06;;;-3.47;75.93
13954;BME280;7049;49.444;8.522;2022-09-01T03:52:58;77428.91;;;-3.47;76.28
13954;BME280;7049;49.444;8.522;2022-09-01T03:58:03;77437.25;;;-3.47;76.52
13954;BME280;7049;49.444;8.522;2022-09-01T04:03:07;77433.06;;;-3.47;76.63
13954;BME280;7049;49.444;8.522;2022-09-01T04:08:10;77441.44;;;-3.47;76.63
13954;BME280;7049;49.444;8.522;2022-09-01T04:13:14;77441.44;;;-3.47;76.69
13954;BME280;7049;49.444;8.522;2022-09-01T04:18:16;77445.63;;;-3.47;76.72
13954;BME280;7049;49.444;8.522;2022-09-01T04:23:23;77447.72;;;-3.47;76.71
13954;BME280;7049;49.444;8.522;2022-09-01T04:28:32;77454.00;;;-3.47;76.85
13954;BME280;7049;49.444;8.522;2022-09-01T04:33:37;77460.28;;;-3.47;76.89
13954;BME280;7049;49.444;8.522;2022-09-01T04:38:39;77462.38;;;-3.47;77.05
13954;BME280;7049;49.444;8.522;2022-09-01T04:43:42;77462.38;;;-3.47;77.33
13954;BME280;7049;49.444;8.522;2022-09-01T04:48:44;77470.75;;;-3.47;77.46
13954;BME280;7049;49.444;8.522;2022-09-01T04:53:46;77474.94;;;-3.47;77.62
13954;BME280;7049;49.444;8.522;2022-09-01T04:58:51;77477.03;;;-3.47;77.92
13954;BME280;7049;49.444;8.522;2022-09-01T05:03:55;77470.75;;;-3.47;77.87
13954;BME280;7049;49.444;8.522;2022-09-01T05:09:00;77472.84;;;-3.47;78.10
13954;BME280;7049;49.444;8.522;2022-09-01T05:14:03;77479.09;;;-3.47;78.35
13954;BME280;7049;49.444;8.522;2022-09-01T05:19:06;77472.84;;;-3.47;78.67
13954;BME280;7049;49.444;8.522;2022-09-01T05:24:16;77470.75;;;-3.47;78.46
13954;BME280;7049;49.444;8.522;2022-09-01T05:29:19;77466.56;;;-3.47;78.46
13954;BME280;7049;49.444;8.522;2022-09-01T05:34:22;77466.56;;;-3.47;78.36
13954;BME280;7049;49.444;8.522;2022-09-01T05:39:26;77466.56;;;-3.47;78.52
13954;BME280;7049;49.444;8.522;2022-09-01T05:44:29;77464.47;;;-3.47;79.02
13954;BME280;7049;49.444;8.522;2022-09-01T05:49:31;77460.28;;;-3.47;78.88
13954;BME280;7049;49.444;8.522;2022-09-01T05:54:33;77454.00;;;-3.47;78.41
13954;BME280;7049;49.444;8.522;2022-09-01T05:59:36;77445.63;;;-3.47;78.81
13954;BME280;7049;49.444;8.522;2022-09-01T06:04:40;77428.91;;;-3.47;78.30
13954;BME280;7049;49.444;8.522;2022-09-01T06:09:45;77422.63;;;-3.47;78.70
13954;BME280;7049;49.444;8.522;2022-09-01T06:14:50;77412.16;;;-3.47;78.22
13954;BME280;7049;49.444;8.522;2022-09-01T06:19:54;77403.78;;;-3.47;78.65
13954;BME280;7049;49.444;8.522;2022-09-01T06:24:56;77397.50;;;-3.47;78.20
13954;BME280;7049;49.444;8.522;2022-09-01T06:30:00;77382.88;;;-3.47;78.23
13954;BME280;7049;49.444;8.522;2022-09-01T06:35:15;77378.69;;;-3.47;78.04
13954;BME280;7049;49.444;8.522;2022-09-01T06:40:17;77368.22;;;-3.47;77.78
13954;BME280;7049;49.444;8.522;2022-09-01T06:45:21;77355.66;;;-3.47;77.81
13954;BME280;7049;49.444;8.522;2022-09-01T06:50:23;77349.38;;;-3.47;77.56
13954;BME280;7049;49.444;8.522;2022-09-01T06:55:27;77341.03;;;-3.47;76.93
13954;BME280;7049;49.444;8.522;2022-09-01T07:00:35;77332.66;;;-3.47;76.03
13954;BME280;7049;49.444;8.522;2022-09-01T07:05:42;77324.28;;;-3.47;75.39
13954;BME280;7049;49.444;8.522;2022-09-01T07:10:47;77318.00;;;-3.47;74.67
13954;BME280;7049;49.444;8.522;2022-09-01T07:15:51;77309.63;;;-3.47;74.31
13954;BME280;7049;49.444;8.522;2022-09-01T07:20:54;77290.81;;;-3.47;74.10
13954;BME280;7049;49.444;8.522;2022-09-01T07:25:56;77267.78;;;-3.47;73.67
13954;BME280;7049;49.444;8.522;2022-09-01T07:31:01;77230.13;;;-3.47;73.13
13954;BME280;7049;49.444;8.522;2022-09-01T07:36:03;77207.13;;;-3.47;71.96
13954;BME280;7049;49.444;8.522;2022-09-01T07:41:06;77194.56;;;-3.47;71.76
13954;BME280;7049;49.444;8.522;2022-09-01T07:46:10;77182.03;;;-3.47;70.79
13954;BME280;7049;49.444;8.522;2022-09-01T07:51:13;77146.44;;;-3.47;70.50
13954;BME280;7049;49.444;8.522;2022-09-01T07:56:31;77112.97;;;-3.47;68.78
13954;BME280;7049;49.444;8.522;2022-09-01T08:01:34;77066.97;;;-3.47;67.35
13954;BME280;7049;49.444;8.522;2022-09-01T08:06:36;77069.06;;;-3.47;64.63
13954;BME280;7049;49.444;8.522;2022-09-01T08:11:38;77052.31;;;-3.47;64.00
13954;BME280;7049;49.444;8.522;2022-09-01T08:16:45;77046.03;;;-3.47;64.15
13954;BME280;7049;49.444;8.522;2022-09-01T08:21:47;77033.47;;;-3.47;64.15
13954;BME280;7049;49.444;8.522;2022-09-01T08:26:48;77016.75;;;-3.47;64.05
13954;BME280;7049;49.444;8.522;2022-09-01T08:31:55;77006.28;;;-3.47;63.20
13954;BME280;7049;49.444;8.522;2022-09-01T08:36:58;76995.84;;;-3.47;63.31
13954;BME280;7049;49.444;8.522;2022-09-01T08:42:06;76968.63;;;-3.47;63.63
13954;BME280;7049;49.444;8.522;2022-09-01T08:47:16;76939.34;;;-3.47;63.32
13954;BME280;7049;49.444;8.522;2022-09-01T08:52:23;76926.78;;;-3.47;61.27
13954;BME280;7049;49.444;8.522;2022-09-01T08:57:31;76910.06;;;-3.47;60.63
13954;BME280;7049;49.444;8.522;2022-09-01T09:02:52;76866.13;;;-3.47;61.21
13954;BME280;7049;49.444;8.522;2022-09-01T09:08:09;76788.72;;;-3.47;61.07
13954;BME280;7049;49.444;8.522;2022-09-01T09:13:20;76719.69;;;-3.47;59.85
13954;BME280;7049;49.444;8.522;2022-09-01T09:18:28;76696.69;;;-3.47;57.78
13954;BME280;7049;49.444;8.522;2022-09-01T09:23:38;76713.44;;;-3.47;56.10
13954;BME280;7049;49.444;8.522;2022-09-01T09:28:41;76728.06;;;-3.47;54.06
13954;BME280;7049;49.444;8.522;2022-09-01T09:33:44;76738.53;;;-3.47;54.67
13954;BME280;7049;49.444;8.522;2022-09-01T09:38:45;76732.25;;;-3.47;54.87
13954;BME280;7049;49.444;8.522;2022-09-01T09:43:49;76723.88;;;-3.47;54.86
13954;BME280;7049;49.444;8.522;2022-09-01T09:49:09;76715.50;;;-3.47;52.95
13954;BME280;7049;49.444;8.522;2022-09-01T09:54:13;76694.59;;;-3.47;52.74
13954;BME280;7049;49.444;8.522;2022-09-01T09:59:17;76623.47;;;-3.47;49.65
13954;BME280;7049;49.444;8.522;2022-09-01T10:04:34;76552.34;;;-3.47;49.65
13954;BME280;7049;49.444;8.522;2022-09-01T10:09:36;76529.34;;;-3.47;48.59
13954;BME280;7049;49.444;8.522;2022-09-01T10:14:41;76529.34;;;-3.47;47.89
13954;BME280;7049;49.444;8.522;2022-09-01T10:19:51;76495.88;;;-3.47;47.74
13954;BME280;7049;49.444;8.522;2022-09-01T10:24:53;76456.16;;;-3.47;45.19
13954;BME280;7049;49.444;8.522;2022-09-01T10:29:56;76443.59;;;-3.47;42.14
13954;BME280;7049;49.444;8.522;2022-09-01T10:35:05;76414.31;;;-3.47;40.55
13954;BME280;7049;49.444;8.522;2022-09-01T10:40:20;76366.19;;;-3.47;40.87
13954;BME280;7049;49.444;8.522;2022-09-01T10:45:36;76341.09;;;-3.47;40.11
13954;BME280;7049;49.444;8.522;2022-09-01T10:50:40;76334.84;;;-3.47;38.70
13954;BME280;7049;49.444;8.522;2022-09-01T10:55:44;76295.09;;;-3.47;38.47
13954;BME280;7049;49.444;8.522;2022-09-01T11:00:52;76247.00;;;-3.47;36.88
13954;BME280;7049;49.444;8.522;2022-09-01T11:06:02;76232.34;;;-3.47;36.23
13954;BME280;7049;49.444;8.522;2022-09-01T11:11:08;76196.78;;;-3.47;36.25
13954;BME280;7049;49.444;8.522;2022-09-01T11:16:25;76136.13;;;-3.47;35.38
13954;BME280;7049;49.444;8.522;2022-09-01T11:21:29;76098.50;;;-3.47;36.54
13954;BME280;7049;49.444;8.522;2022-09-01T11:26:47;76079.66;;;-3.47;33.92
13954;BME280;7049;49.444;8.522;2022-09-01T11:31:49;76056.66;;;-3.47;35.47
13954;BME280;7049;49.444;8.522;2022-09-01T11:36:57;76014.84;;;-3.47;33.48
13954;BME280;7049;49.444;8.522;2022-09-01T11:42:03;76035.75;;;-3.47;34.21
13954;BME280;7049;49.444;8.522;2022-09-01T11:47:10;76031.56;;;-3.47;33.95
13954;BME280;7049;49.444;8.522;2022-09-01T11:52:18;76027.38;;;-3.47;33.09
13954;BME280;7049;49.444;8.522;2022-09-01T11:57:27;76048.28;;;-3.47;34.00
13954;BME280;7049;49.444;8.522;2022-09-01T12:02:31;76016.94;;;-3.47;34.93
13954;BME280;7049;49.444;8.522;2022-09-01T12:07:40;75968.81;;;-3.47;34.68
13954;BME280;7049;49.444;8.522;2022-09-01T12:12:43;75945.81;;;-3.47;33.86
13954;BME280;7049;49.444;8.522;2022-09-01T12:17:44;75943.72;;;-3.47;33.12
13954;BME280;7049;49.444;8.522;2022-09-01T12:22:47;75935.38;;;-3.47;33.46
13954;BME280;7049;49.444;8.522;2022-09-01T12:27:49;75920.72;;;-3.47;33.50
13954;BME280;7049;49.444;8.522;2022-09-01T12:32:52;75920.72;;;-3.47;33.48
13954;BME280;7049;49.444;8.522;2022-09-01T12:38:23;75966.72;;;-3.47;32.92
13954;BME280;7049;49.444;8.522;2022-09-01T12:43:34;75985.56;;;-3.47;34.08
13954;BME280;7049;49.444;8.522;2022-09-01T12:48:37;76019.03;;;-3.47;34.06
13954;BME280;7049;49.444;8.522;2022-09-01T12:53:50;76044.13;;;-3.47;34.32
13954;BME280;7049;49.444;8.522;2022-09-01T12:59:03;76071.31;;;-3.47;34.77
13954;BME280;7049;49.444;8.522;2022-09-01T13:04:10;76094.31;;;-3.47;34.34
13954;BME280;7049;49.444;8.522;2022-09-01T13:09:13;76065.03;;;-3.47;34.26
13954;BME280;7049;49.444;8.522;2022-09-01T13:14:15;76039.94;;;-3.47;33.23
13954;BME280;7049;49.444;8.522;2022-09-01T13:19:17;75993.91;;;-3.47;33.63
13954;BME280;7049;49.444;8.522;2022-09-01T13:24:20;75968.81;;;-3.47;32.87
13954;BME280;7049;49.444;8.522;2022-09-01T13:29:22;75947.91;;;-3.47;32.74
13954;BME280;7049;49.444;8.522;2022-09-01T13:34:24;75950.00;;;-3.47;32.68
13954;BME280;7049;49.444;8.522;2022-09-01T13:39:26;75941.63;;;-3.47;32.09
13954;BME280;7049;49.444;8.522;2022-09-01T13:44:28;75943.72;;;-3.47;32.82
13954;BME280;7049;49.444;8.522;2022-09-01T13:49:29;75979.28;;;-3.47;32.37
13954;BME280;7049;49.444;8.522;2022-09-01T13:54:32;75991.84;;;-3.47;32.78
13954;BME280;7049;49.444;8.522;2022-09-01T13:59:34;76006.47;;;-3.47;32.70
13954;BME280;7049;49.444;8.522;2022-09-01T14:04:35;75979.28;;;-3.47;32.97
13954;BME280;7049;49.444;8.522;2022-09-01T14:09:38;75966.72;;;-3.47;33.05
13954;BME280;7049;49.444;8.522;2022-09-01T14:14:40;75931.19;;;-3.47;32.89
13954;BME280;7049;49.444;8.522;2022-09-01T14:19:41;75920.72;;;-3.47;31.95
13954;BME280;7049;49.444;8.522;2022-09-01T14:24:44;75943.72;;;-3.47;32.04
13954;BME280;7049;49.444;8.522;2022-09-01T14:29:48;75979.28;;;-3.47;32.37
13954;BME280;7049;49.444;8.522;2022-09-01T14:34:50;75993.91;;;-3.47;32.85
13954;BME280;7049;49.444;8.522;2022-09-01T14:39:54;76010.66;;;-3.47;33.90
13954;BME280;7049;49.444;8.522;2022-09-01T14:44:56;76025.28;;;-3.47;34.53
13954;BME280;7049;49.444;8.522;2022-09-01T14:49:57;76042.03;;;-3.47;34.20
13954;BME280;7049;49.444;8.522;2022-09-01T14:55:00;76052.47;;;-3.47;33.91
13954;BME280;7049;49.444;8.522;2022-09-01T15:00:02;76058.75;;;-3.47;34.35
13954;BME280;7049;49.444;8.522;2022-09-01T15:05:06;76060.84;;;-3.47;35.46
13954;BME280;7049;49.444;8.522;2022-09-01T15:10:11;76062.94;;;-3.47;35.39
13954;BME280;7049;49.444;8.522;2022-09-01T15:15:13;76046.22;;;-3.47;34.89
13954;BME280;7049;49.444;8.522;2022-09-01T15:20:14;75991.84;;;-3.47;32.70
13954;BME280;7049;49.444;8.522;2022-09-01T15:25:35;75996.00;;;-3.47;33.40
13954;BME280;7049;49.444;8.522;2022-09-01T15:30:37;76000.19;;;-3.47;33.43
13954;BME280;7049;49.444;8.522;2022-09-01T15:35:39;76021.09;;;-3.47;33.39
13954;BME280;7049;49.444;8.522;2022-09-01T15:40:42;76042.03;;;-3.47;33.88
13954;BME280;7049;49.444;8.522;2022-09-01T15:45:45;76069.22;;;-3.47;33.98
13954;BME280;7049;49.444;8.522;2022-09-01T15:50:46;76098.50;;;-3.47;34.03
13954;BME280;7049;49.444;8.522;2022-09-01T15:55:49;76111.03;;;-3.47;34.56
13954;BME280;7049;49.444;8.522;2022-09-01T16:00:50;76127.78;;;-3.47;34.53
13954;BME280;7049;49.444;8.522;2022-09-01T16:05:52;76144.50;;;-3.47;34.89
13954;BME280;7049;49.444;8.522;2022-09-01T16:10:55;76152.88;;;-3.47;35.09
13954;BME280;7049;49.444;8.522;2022-09-01T16:16:05;76165.41;;;-3.47;34.32
13954;BME280;7049;49.444;8.522;2022-09-01T16:21:14;76165.41;;;-3.47;35.19
13954;BME280;7049;49.444;8.522;2022-09-01T16:26:21;76182.16;;;-3.47;34.08
13954;BME280;7049;49.444;8.522;2022-09-01T16:31:26;76194.69;;;-3.47;33.97
13954;BME280;7049;49.444;8.522;2022-09-01T16:36:33;76207.25;;;-3.47;34.43
13954;BME280;7049;49.444;8.522;2022-09-01T16:41:45;76213.53;;;-3.47;34.86
13954;BME280;7049;49.444;8.522;2022-09-01T16:46:56;76223.97;;;-3.47;34.38
13954;BME280;7049;49.444;8.522;2022-09-01T16:52:07;76238.63;;;-3.47;34.23
13954;BME280;7049;49.444;8.522;2022-09-01T16:57:16;76253.25;;;-3.47;33.76
13954;BME280;7049;49.444;8.522;2022-09-01T17:02:32;76263.72;;;-3.47;34.13
13954;BME280;7049;49.444;8.522;2022-09-01T17:07:42;76280.44;;;-3.47;34.60
13954;BME280;7049;49.444;8.522;2022-09-01T17:12:50;76293.00;;;-3.47;35.25
13954;BME280;7049;49.444;8.522;2022-09-01T17:18:02;76307.63;;;-3.47;35.61
13954;BME280;7049;49.444;8.522;2022-09-01T17:23:11;76316.00;;;-3.47;35.91
13954;BME280;7049;49.444;8.522;2022-09-01T17:28:21;76336.91;;;-3.47;35.92
13954;BME280;7049;49.444;8.522;2022-09-01T17:33:33;76349.47;;;-3.47;36.32
13954;BME280;7049;49.444;8.522;2022-09-01T17:38:45;76366.19;;;-3.47;36.18
13954;BME280;7049;49.444;8.522;2022-09-01T17:43:57;76387.13;;;-3.47;36.56
13954;BME280;7049;49.444;8.522;2022-09-01T17:49:07;76410.13;;;-3.47;37.12
13954;BME280;7049;49.444;8.522;2022-09-01T17:54:20;76420.59;;;-3.47;37.84
13954;BME280;7049;49.444;8.522;2022-09-01T17:59:29;76433.13;;;-3.47;38.55
13954;BME280;7049;49.444;8.522;2022-09-01T18:04:41;76449.88;;;-3.47;38.94
13954;BME280;7049;49.444;8.522;2022-09-01T18:09:50;76462.41;;;-3.47;37.98
13954;BME280;7049;49.444;8.522;2022-09-01T18:14:58;76483.34;;;-3.47;38.56
13954;BME280;7049;49.444;8.522;2022-09-01T18:20:05;76500.06;;;-3.47;39.24
13954;BME280;7049;49.444;8.522;2022-09-01T18:25:13;76514.72;;;-3.47;39.85
13954;BME280;7049;49.444;8.522;2022-09-01T18:30:19;76529.34;;;-3.47;40.94
13954;BME280;7049;49.444;8.522;2022-09-01T18:35:30;76550.28;;;-3.47;41.88
13954;BME280;7049;49.444;8.522;2022-09-01T18:40:40;76560.72;;;-3.47;43.38
13954;BME280;7049;49.444;8.522;2022-09-01T18:45:52;76577.47;;;-3.47;44.36
13954;BME280;7049;49.444;8.522;2022-09-01T18:51:00;76592.09;;;-3.47;44.70
13954;BME280;7049;49.444;8.522;2022-09-01T18:56:08;76617.19;;;-3.47;44.57
13954;BME280;7049;49.444;8.522;2022-09-01T19:01:15;76625.56;;;-3.47;45.35
13954;BME280;7049;49.444;8.522;2022-09-01T19:06:29;76638.13;;;-3.47;46.18
13954;BME280;7049;49.444;8.522;2022-09-01T19:11:38;76648.56;;;-3.47;45.00
13954;BME280;7049;49.444;8.522;2022-09-01T19:16:54;76654.84;;;-3.47;44.94
13954;BME280;7049;49.444;8.522;2022-09-01T19:21:59;76675.78;;;-3.47;46.48
13954;BME280;7049;49.444;8.522;2022-09-01T19:27:07;76688.31;;;-3.47;46.51
13954;BME280;7049;49.444;8.522;2022-09-01T19:32:13;76700.88;;;-3.47;46.68
13954;BME280;7049;49.444;8.522;2022-09-01T19:37:18;76709.25;;;-3.47;46.77
13954;BME280;7049;49.444;8.522;2022-09-01T19:42:25;76723.88;;;-3.47;47.53
13954;BME280;7049;49.444;8.522;2022-09-01T19:47:35;76738.53;;;-3.47;47.14
13954;BME280;7049;49.444;8.522;2022-09-01T19:52:41;76746.91;;;-3.47;46.85
13954;BME280;7049;49.444;8.522;2022-09-01T19:57:47;76755.25;;;-3.47;47.65
13954;BME280;7049;49.444;8.522;2022-09-01T20:02:59;76774.09;;;-3.47;47.88
13954;BME280;7049;49.444;8.522;2022-09-01T20:08:05;76782.47;;;-3.47;48.78
13954;BME280;7049;49.444;8.522;2022-09-01T20:13:22;76790.81;;;-3.47;49.27
13954;BME280;7049;49.444;8.522;2022-09-01T20:18:29;76807.56;;;-3.47;49.93
13954;BME280;7049;49.444;8.522;2022-09-01T20:23:36;76815.94;;;-3.47;49.98
13954;BME280;7049;49.444;8.522;2022-09-01T20:28:47;76826.38;;;-3.47;50.47
13954;BME280;7049;49.444;8.522;2022-09-01T20:33:56;76843.13;;;-3.47;50.39
13954;BME280;7049;49.444;8.522;2022-09-01T20:39:04;76861.94;;;-3.47;50.29
13954;BME280;7049;49.444;8.522;2022-09-01T20:44:33;76870.31;;;-3.47;51.03
13954;BME280;7049;49.444;8.522;2022-09-01T20:49:37;76887.06;;;-3.47;51.09
13954;BME280;7049;49.444;8.522;2022-09-01T20:54:47;76899.59;;;-3.47;51.24
13954;BME280;7049;49.444;8.522;2022-09-01T20:59:53;76910.06;;;-3.47;52.29
13954;BME280;7049;49.444;8.522;2022-09-01T21:05:02;76918.44;;;-3.47;52.49
13954;BME280;7049;49.444;8.522;2022-09-01T21:10:15;76930.97;;;-3.47;52.85
13954;BME280;7049;49.444;8.522;2022-09-01T21:15:26;76943.53;;;-3.47;52.85
13954;BME280;7049;49.444;8.522;2022-09-01T21:20:40;76945.63;;;-3.47;53.45
13954;BME280;7049;49.444;8.522;2022-09-01T21:25:45;76951.91;;;-3.47;54.32
13954;BME280;7049;49.444;8.522;2022-09-01T21:30:48;76964.44;;;-3.47;54.71
13954;BME280;7049;49.444;8.522;2022-09-01T21:35:59;76970.72;;;-3.47;55.07
13954;BME280;7049;49.444;8.522;2022-09-01T21:41:01;76989.56;;;-3.47;55.35
13954;BME280;7049;49.444;8.522;2022-09-01T21:46:04;76993.75;;;-3.47;55.67
13954;BME280;7049;49.444;8.522;2022-09-01T21:51:08;76997.91;;;-3.47;56.20
13954;BME280;7049;49.444;8.522;2022-09-01T21:56:10;77010.47;;;-3.47;56.74
13954;BME280;7049;49.444;8.522;2022-09-01T22:01:11;77006.28;;;-3.47;57.08
13954;BME280;7049;49.444;8.522;2022-09-01T22:06:14;77014.66;;;-3.47;57.17
13954;BME280;7049;49.444;8.522;2022-09-01T22:11:15;77029.31;;;-3.47;57.75
13954;BME280;7049;49.444;8.522;2022-09-01T22:16:18;77035.56;;;-3.47;58.55
13954;BME280;7049;49.444;8.522;2022-09-01T22:21:21;77039.75;;;-3.47;59.29
13954;BME280;7049;49.444;8.522;2022-09-01T22:26:25;77043.94;;;-3.47;59.75
13954;BME280;7049;49.444;8.522;2022-09-01T22:31:29;77050.22;;;-3.47;60.13
13954;BME280;7049;49.444;8.522;2022-09-01T22:36:34;77050.22;;;-3.47;60.23
13954;BME280;7049;49.444;8.522;2022-09-01T22:41:37;77062.78;;;-3.47;60.85
13954;BME280;7049;49.444;8.522;2022-09-01T22:46:39;77064.88;;;-3.47;60.92
13954;BME280;7049;49.444;8.522;2022-09-01T22:51:42;77075.31;;;-3.47;60.95
13954;BME280;7049;49.444;8.522;2022-09-01T22:56:44;77085.78;;;-3.47;60.98
13954;BME280;7049;49.444;8.522;2022-09-01T23:01:46;77092.06;;;-3.47;61.33
13954;BME280;7049;49.444;8.522;2022-09-01T23:06:50;77102.53;;;-3.47;61.27
13954;BME280;7049;49.444;8.522;2022-09-01T23:11:53;77115.06;;;-3.47;61.34
13954;BME280;7049;49.444;8.522;2022-09-01T23:16:55;77119.25;;;-3.47;61.53
13954;BME280;7049;49.444;8.522;2022-09-01T23:21:58;77125.53;;;-3.47;62.18
13954;BME280;7049;49.444;8.522;2022-09-01T23:27:00;77131.81;;;-3.47;61.87
13954;BME280;7049;49.444;8.522;2022-09-01T23:32:02;77138.09;;;-3.47;62.15
13954;BME280;7049;49.444;8.522;2022-09-01T23:37:05;77152.72;;;-3.47;62.49
13954;BME280;7049;49.444;8.522;2022-09-01T23:42:07;77148.53;;;-3.47;62.65
13954;BME280;7049;49.444;8.522;2022-09-01T23:47:08;77154.81;;;-3.47;63.24
13954;BME280;7049;49.444;8.522;2022-09-01T23:52:11;77156.91;;;-3.47;63.56
13954;BME280;7049;49.444;8.522;2022-09-01T23:57:13;77159.00;;;-3.47;64.14
